Yabucoa, PR (00767)

10:14 PM AST on September 22, 2019 (GMT -0400)
KP4DMR-WX | | Change Station
Active Advisory: Tropical Storm Watch ()

Elev 49 ft 18.05 °N, 65.87 °W | Updated 22 seconds ago

Partly Cloudy
Partly Cloudy
85.1 °F
Feels Like 93 °F
N
6.8
Wind Variable Wind from NE
Gusts 0.0 mph

Today
High -- | Low -- °F
--% Chance of Precip.
Yesterday
High -- | Low -- °F
Precip. -- in
Pressure 29.96 in
Visibility 9.0 miles
Clouds Few 2300 ft
Few 3000 ft
Heat Index 93 °F
Dew Point 74 °F
Humidity 69%
Rainfall 0.16 in
Snow Depth Not available.
6:12 AM 6:19 PM
Last Quarter, 39% visible
METAR TJNR 230153Z AUTO 10011KT 9SM FEW023 FEW030 29/25 A2996 RMK AO2 SLP144 T02890250
Pressure 29.96 in
Visibility 9.0 miles
Clouds Few 2300 ft
Few 3000 ft
Heat Index 93 °F
Dew Point 74 °F
Humidity 69%
Rainfall 0.16 in
Snow Depth Not available.
6:12 AM 6:19 PM
Last Quarter, 39% visible
METAR TJNR 230153Z AUTO 10011KT 9SM FEW023 FEW030 29/25 A2996 RMK AO2 SLP144 T02890250

Get Your Daily Forecast Email!

Thanks for signing up!

Be on the lookout for a verification email in your inbox.

You'll start receiving severe weather alerts in your inbox..

×

10-Day Weather Forecast

Almanac

Astronomy

Sep. 22, 2019 Rise Set
Actual Time
Civil Twilight
Nautical Twilight
Astronomical Twilight
Moon
Length of Visible Light
Length of Day
Tomorrow will be .
, % of the Moon is Illuminated

Today's Extremes

State Highs State Lows

Community

WunderPhotos

Category 6

Welcome to Category 6. This is the collective home for Weather Underground's featured writeups by Dr. Jeff Masters (right), Bob Henson (left), Chris Burt, and other regular contributors.

Nearby

Air Quality

  Air Quality AQ Index Pollutant
Not available.

Snow Depth

Station Depth Elevation

Earthquake Activity

City Distance Mag. Time & Date
Minimum magnitude displayed is 2.5.

Coastal Water Temperatures

Place Temperature

Stations

Nearby Weather Stations

Station Location Temp. Windchill Dew Point Humidity Wind Precip. Elev Updated Type
                   

Watches & Warnings

Tropical Storm Watch
Issued: 7:57 PM AST Sep. 22, 2019 – National Weather Service


757 PM AST sun Sep 22 2019


454 PM AST sun Sep 22 2019


454 PM AST sun Sep 22 2019